createdAt,value
2023-09-30T00:02:13.585Z,2.40
2023-09-30T00:04:41.725Z,2.65
2023-09-30T00:07:09.425Z,2.90
2023-09-30T00:09:37.142Z,2.75
2023-09-30T00:12:05.388Z,3.25
2023-09-30T00:14:34.063Z,2.67
2023-09-30T00:17:01.873Z,2.42
2023-09-30T00:19:29.672Z,2.45
2023-09-30T00:21:57.428Z,2.75
2023-09-30T00:24:25.133Z,2.38
2023-09-30T00:26:52.826Z,2.17
2023-09-30T00:29:20.504Z,2.42
2023-09-30T00:31:52.296Z,2.42
2023-09-30T00:34:20.120Z,2.30
2023-09-30T00:36:48.705Z,2.50
2023-09-30T00:39:16.507Z,2.40
2023-09-30T00:41:44.181Z,2.60
2023-09-30T00:44:12.425Z,2.50
2023-09-30T00:46:42.980Z,2.50
2023-09-30T00:49:11.730Z,2.40
2023-09-30T00:51:40.223Z,2.35
2023-09-30T00:54:10.090Z,2.30
2023-09-30T00:56:49.626Z,2.17
2023-09-30T00:59:18.018Z,2.17
2023-09-30T01:01:47.704Z,2.75
2023-09-30T01:04:16.863Z,2.38
2023-09-30T01:06:44.704Z,2.95
2023-09-30T01:09:14.138Z,2.42
2023-09-30T01:11:42.167Z,2.20
2023-09-30T01:14:45.714Z,2.58
2023-09-30T01:17:14.937Z,2.78
2023-09-30T01:19:44.221Z,2.92
2023-09-30T01:22:12.610Z,2.65
2023-09-30T01:24:41.903Z,2.28
2023-09-30T01:27:10.567Z,2.53
2023-09-30T01:29:41.167Z,2.42
2023-09-30T01:32:09.997Z,2.03
2023-09-30T01:34:38.650Z,2.30
2023-09-30T01:37:07.486Z,2.10
2023-09-30T01:39:35.397Z,2.53
2023-09-30T01:42:03.231Z,2.75
2023-09-30T01:44:34.118Z,2.38
2023-09-30T01:47:02.061Z,2.20
2023-09-30T01:49:30.265Z,2.30
2023-09-30T01:51:58.261Z,2.55
2023-09-30T01:54:27.051Z,2.50
2023-09-30T01:56:54.752Z,2.40
2023-09-30T01:59:22.547Z,2.00
2023-09-30T02:01:50.846Z,2.50
2023-09-30T02:04:18.748Z,2.60
2023-09-30T02:06:46.432Z,2.25
2023-09-30T02:09:14.296Z,2.45
2023-09-30T02:11:44.689Z,2.33
2023-09-30T02:14:12.833Z,2.47
2023-09-30T02:16:41.615Z,2.40
2023-09-30T02:19:12.329Z,2.55
2023-09-30T02:21:40.322Z,2.45
2023-09-30T02:24:08.667Z,2.47
2023-09-30T02:26:36.725Z,2.60
2023-09-30T02:29:04.516Z,2.60
2023-09-30T02:31:32.218Z,2.50
2023-09-30T02:34:00.440Z,2.45
2023-09-30T02:36:28.793Z,2.50
2023-09-30T02:38:56.565Z,2.42
2023-09-30T02:41:24.786Z,2.30
2023-09-30T02:43:52.487Z,2.53
2023-09-30T02:46:20.289Z,2.67
2023-09-30T02:48:48.216Z,2.47
2023-09-30T02:51:16.007Z,2.25
2023-09-30T02:53:43.927Z,2.78
2023-09-30T02:56:11.570Z,2.80
2023-09-30T02:58:41.307Z,2.40
2023-09-30T03:01:11.223Z,2.45
2023-09-30T03:03:42.631Z,2.30
2023-09-30T03:06:11.663Z,2.45
2023-09-30T03:08:39.455Z,2.58
2023-09-30T03:11:07.144Z,2.42
2023-09-30T03:13:35.289Z,2.30
2023-09-30T03:16:02.968Z,2.20
2023-09-30T03:18:32.257Z,2.70
2023-09-30T03:21:02.263Z,2.40
2023-09-30T03:23:33.228Z,2.17
2023-09-30T03:26:01.496Z,2.63
2023-09-30T03:28:30.097Z,2.70
2023-09-30T03:30:58.048Z,2.45
2023-09-30T03:33:26.872Z,2.33
2023-09-30T03:35:54.651Z,2.70
2023-09-30T03:38:23.851Z,3.05
2023-09-30T03:40:51.715Z,2.58
2023-09-30T03:43:20.048Z,2.20
2023-09-30T03:45:47.914Z,2.47
2023-09-30T03:48:15.754Z,2.45
2023-09-30T03:50:44.145Z,2.38
2023-09-30T03:53:12.563Z,2.35
2023-09-30T03:55:40.568Z,2.80
2023-09-30T03:58:08.261Z,2.60
2023-09-30T04:00:37.423Z,2.47
2023-09-30T04:03:05.360Z,2.40
2023-09-30T04:05:37.775Z,2.35
2023-09-30T04:08:06.368Z,2.38
2023-09-30T04:10:34.133Z,2.72
2023-09-30T04:13:01.817Z,2.58
2023-09-30T04:15:30.153Z,2.67
2023-09-30T04:18:00.655Z,2.60
2023-09-30T04:20:28.506Z,2.50
2023-09-30T04:22:58.799Z,2.42
2023-09-30T04:25:27.444Z,2.90
2023-09-30T04:27:55.486Z,2.65
2023-09-30T04:30:24.278Z,2.65
2023-09-30T04:32:52.128Z,2.55
2023-09-30T04:35:20.683Z,2.60
2023-09-30T04:37:48.334Z,2.75
2023-09-30T04:40:21.457Z,2.35
2023-09-30T04:42:50.737Z,2.40
2023-09-30T04:45:21.665Z,2.88
2023-09-30T04:47:50.537Z,3.67
2023-09-30T04:50:18.534Z,3.08
2023-09-30T04:52:46.771Z,2.80
2023-09-30T04:55:17.457Z,3.00
2023-09-30T04:57:47.343Z,2.30
2023-09-30T05:00:16.613Z,2.47
2023-09-30T05:02:47.680Z,2.20
2023-09-30T05:05:16.247Z,2.95
2023-09-30T05:07:44.566Z,2.38
2023-09-30T05:10:15.047Z,2.88
2023-09-30T05:12:47.499Z,2.60
2023-09-30T05:15:18.080Z,2.53
2023-09-30T05:17:50.208Z,2.70
2023-09-30T05:20:19.061Z,2.45
2023-09-30T05:22:47.942Z,2.35
2023-09-30T05:25:19.761Z,2.20
2023-09-30T05:27:50.777Z,2.70
2023-09-30T05:30:20.644Z,2.40
2023-09-30T05:32:49.085Z,2.60
2023-09-30T05:35:18.668Z,2.58
2023-09-30T05:37:47.172Z,2.88
2023-09-30T05:40:23.688Z,2.10
2023-09-30T05:42:56.614Z,2.15
2023-09-30T05:45:25.201Z,2.20
2023-09-30T05:47:53.921Z,1.98
2023-09-30T05:50:28.542Z,2.35
2023-09-30T05:52:57.053Z,2.40
2023-09-30T05:55:27.078Z,2.72
2023-09-30T05:57:56.023Z,4.20
2023-09-30T06:00:32.728Z,3.65
2023-09-30T06:03:01.245Z,3.78
2023-09-30T06:05:32.393Z,2.53
2023-09-30T06:08:04.245Z,3.88
2023-09-30T06:10:32.857Z,4.65
2023-09-30T06:13:01.227Z,3.83
2023-09-30T06:15:30.026Z,4.10
2023-09-30T06:17:59.127Z,3.63
2023-09-30T06:20:28.576Z,5.00
2023-09-30T06:22:57.364Z,5.20
2023-09-30T06:25:25.830Z,4.32
2023-09-30T06:27:54.474Z,4.93
2023-09-30T06:30:22.768Z,4.82
2023-09-30T06:32:50.989Z,4.03
2023-09-30T06:35:20.469Z,4.22
2023-09-30T06:37:51.248Z,4.28
2023-09-30T06:40:20.001Z,4.47
2023-09-30T06:42:47.973Z,4.20
2023-09-30T06:45:16.713Z,4.68
2023-09-30T06:47:46.945Z,4.93
2023-09-30T06:50:18.303Z,4.15
2023-09-30T06:52:51.364Z,3.97
2023-09-30T06:55:19.459Z,3.38
2023-09-30T06:57:47.739Z,3.50
2023-09-30T07:00:16.177Z,3.05
2023-09-30T07:02:44.125Z,2.88
2023-09-30T07:05:13.816Z,2.58
2023-09-30T07:07:46.642Z,2.65
2023-09-30T07:10:15.567Z,3.40
2023-09-30T07:12:43.561Z,6.38
2023-09-30T07:15:11.726Z,5.53
2023-09-30T07:17:40.110Z,5.40
2023-09-30T07:20:10.934Z,3.42
2023-09-30T07:22:48.286Z,11.40
2023-09-30T07:25:20.731Z,26.70
2023-09-30T07:27:49.117Z,12.85
2023-09-30T07:30:17.462Z,14.25
2023-09-30T07:32:46.067Z,11.75
2023-09-30T07:35:16.650Z,6.32
2023-09-30T07:37:45.200Z,3.20
2023-09-30T07:40:14.227Z,5.03
2023-09-30T07:42:42.252Z,3.40
2023-09-30T07:45:10.510Z,4.90
2023-09-30T07:47:38.922Z,5.03
2023-09-30T07:50:11.340Z,3.25
2023-09-30T07:52:41.130Z,3.28
2023-09-30T07:55:10.504Z,3.65
2023-09-30T07:57:39.724Z,3.90
2023-09-30T08:00:16.132Z,3.60
2023-09-30T08:02:45.757Z,3.13
2023-09-30T08:05:14.036Z,3.47
2023-09-30T08:07:41.957Z,3.63
2023-09-30T08:10:14.745Z,3.42
2023-09-30T08:12:43.318Z,3.50
2023-09-30T08:15:15.432Z,3.70
2023-09-30T08:17:44.367Z,3.45
2023-09-30T08:20:12.627Z,3.83
2023-09-30T08:22:42.223Z,5.00
2023-09-30T08:25:11.561Z,3.47
2023-09-30T08:27:40.372Z,3.05
2023-09-30T08:30:08.729Z,2.58
2023-09-30T08:32:39.936Z,2.08
2023-09-30T08:35:08.413Z,1.80
2023-09-30T08:37:36.161Z,1.70
2023-09-30T08:40:06.075Z,1.23
2023-09-30T08:42:35.544Z,1.08
2023-09-30T08:45:08.040Z,1.17
2023-09-30T08:47:36.836Z,1.00
2023-09-30T08:50:09.887Z,0.65
2023-09-30T08:52:41.179Z,0.88
2023-09-30T08:55:11.463Z,0.52
2023-09-30T08:57:41.442Z,1.00
2023-09-30T09:00:14.387Z,0.82
2023-09-30T09:02:43.257Z,1.00
2023-09-30T09:05:12.148Z,0.43
2023-09-30T09:07:40.760Z,0.68
2023-09-30T09:10:11.508Z,1.30
2023-09-30T09:12:40.451Z,1.05
2023-09-30T09:15:09.941Z,1.15
2023-09-30T09:17:45.558Z,0.55
2023-09-30T09:20:21.818Z,1.08
2023-09-30T09:22:53.931Z,1.00
2023-09-30T09:25:25.335Z,0.95
2023-09-30T09:27:55.097Z,0.75
2023-09-30T09:30:27.850Z,0.80
2023-09-30T09:32:55.588Z,1.13
2023-09-30T09:35:23.824Z,0.98
2023-09-30T09:38:07.560Z,1.02
2023-09-30T09:40:37.567Z,1.13
2023-09-30T09:43:06.801Z,1.30
2023-09-30T09:45:38.984Z,1.20
2023-09-30T09:48:08.382Z,1.10
2023-09-30T09:50:40.044Z,1.33
2023-09-30T09:53:09.612Z,1.27
2023-09-30T09:55:40.136Z,1.17
2023-09-30T09:58:09.327Z,1.30
2023-09-30T10:00:38.302Z,1.67
2023-09-30T10:03:06.364Z,1.30
2023-09-30T10:05:34.261Z,1.67
2023-09-30T10:08:06.755Z,1.05
2023-09-30T10:10:41.223Z,1.35
2023-09-30T10:13:08.953Z,1.35
2023-09-30T10:15:41.707Z,1.70
2023-09-30T10:18:15.277Z,1.70
2023-09-30T10:20:46.684Z,1.87
2023-09-30T10:23:36.000Z,1.45
2023-09-30T10:26:16.383Z,1.42
2023-09-30T10:28:48.326Z,2.22
2023-09-30T10:31:26.235Z,1.95
2023-09-30T10:34:03.538Z,2.40
2023-09-30T10:36:35.801Z,1.80
2023-09-30T10:39:04.550Z,2.03
2023-09-30T10:41:41.977Z,2.50
2023-09-30T10:44:28.587Z,2.50
2023-09-30T10:46:58.537Z,2.30
2023-09-30T10:49:26.227Z,2.45
2023-09-30T10:51:58.701Z,2.22
2023-09-30T10:54:34.063Z,2.08
2023-09-30T10:57:02.317Z,2.20
2023-09-30T10:59:36.381Z,1.90
2023-09-30T11:02:05.446Z,2.10
2023-09-30T11:04:48.221Z,2.33
2023-09-30T11:07:25.088Z,2.35
2023-09-30T11:09:54.943Z,2.13
2023-09-30T11:12:22.799Z,2.25
2023-09-30T11:15:05.106Z,2.63
2023-09-30T11:17:33.000Z,2.10
2023-09-30T11:20:01.593Z,1.80
2023-09-30T11:22:29.557Z,2.15
2023-09-30T11:24:57.902Z,1.95
2023-09-30T11:27:26.160Z,2.33
2023-09-30T11:29:54.298Z,2.80
2023-09-30T11:32:30.347Z,2.25
2023-09-30T11:34:58.617Z,2.00
2023-09-30T11:37:33.370Z,1.90
2023-09-30T11:40:17.588Z,2.05
2023-09-30T11:43:08.369Z,2.00
2023-09-30T11:45:37.546Z,2.20
2023-09-30T11:48:23.904Z,2.63
2023-09-30T11:50:51.980Z,2.17
2023-09-30T11:53:22.221Z,2.85
2023-09-30T11:55:50.187Z,2.50
2023-09-30T11:58:19.930Z,2.88
2023-09-30T12:00:53.148Z,2.88
2023-09-30T12:03:22.849Z,3.00
2023-09-30T12:05:50.630Z,2.88
2023-09-30T12:08:18.816Z,3.10
2023-09-30T12:10:46.480Z,3.13
2023-09-30T12:13:16.494Z,2.95
2023-09-30T12:15:47.197Z,3.78
2023-09-30T12:18:24.940Z,2.85
2023-09-30T12:20:53.422Z,3.17
2023-09-30T12:23:21.445Z,3.10
2023-09-30T12:26:02.428Z,2.58
2023-09-30T12:28:37.109Z,3.22
2023-09-30T12:31:06.020Z,3.65
2023-09-30T12:33:34.022Z,4.05
2023-09-30T12:36:01.946Z,4.07
2023-09-30T12:38:29.752Z,3.83
2023-09-30T12:40:57.436Z,4.10
2023-09-30T12:43:26.347Z,4.30
2023-09-30T12:45:58.869Z,4.20
2023-09-30T12:48:26.964Z,3.80
2023-09-30T12:50:54.774Z,3.67
2023-09-30T12:53:22.503Z,3.97
2023-09-30T12:55:50.220Z,4.38
2023-09-30T12:58:17.996Z,3.50
2023-09-30T13:00:45.766Z,3.72
2023-09-30T13:03:16.657Z,3.92
2023-09-30T13:05:44.567Z,4.00
2023-09-30T13:08:12.456Z,4.13
2023-09-30T13:10:40.256Z,4.40
2023-09-30T13:13:08.058Z,3.70
2023-09-30T13:15:36.029Z,4.75
2023-09-30T13:18:04.924Z,4.07
2023-09-30T13:20:32.815Z,4.03
2023-09-30T13:23:06.350Z,3.97
2023-09-30T13:25:34.049Z,3.88
2023-09-30T13:28:02.165Z,4.07
2023-09-30T13:30:30.027Z,5.03
2023-09-30T13:33:01.196Z,4.32
2023-09-30T13:35:32.177Z,4.10
2023-09-30T13:38:02.877Z,4.30
2023-09-30T13:40:31.982Z,3.67
2023-09-30T13:43:01.253Z,4.07
2023-09-30T13:45:31.944Z,3.38
2023-09-30T13:48:02.353Z,3.78
2023-09-30T13:50:30.569Z,4.07
2023-09-30T13:53:00.406Z,4.53
2023-09-30T13:55:28.489Z,3.65
2023-09-30T13:58:06.171Z,3.53
2023-09-30T14:00:34.139Z,3.75
2023-09-30T14:03:02.283Z,3.58
2023-09-30T14:05:30.330Z,3.35
2023-09-30T14:07:59.095Z,4.28
2023-09-30T14:10:27.480Z,4.20
2023-09-30T14:12:55.746Z,4.07
2023-09-30T14:15:23.609Z,4.30
2023-09-30T14:17:51.448Z,4.45
2023-09-30T14:20:24.443Z,4.00
2023-09-30T14:22:58.468Z,4.38
2023-09-30T14:25:26.538Z,3.67
2023-09-30T14:27:54.297Z,3.75
2023-09-30T14:30:22.243Z,4.22
2023-09-30T14:32:49.963Z,3.55
2023-09-30T14:35:17.872Z,5.03
2023-09-30T14:37:45.703Z,3.58
2023-09-30T14:40:14.257Z,4.78
2023-09-30T14:42:43.077Z,4.30
2023-09-30T14:45:12.289Z,4.22
2023-09-30T14:47:40.433Z,3.95
2023-09-30T14:50:09.825Z,5.00
2023-09-30T14:52:37.496Z,5.25
2023-09-30T14:55:05.641Z,4.50
2023-09-30T14:57:33.637Z,4.88
2023-09-30T15:00:01.574Z,3.70
2023-09-30T15:02:30.015Z,4.43
2023-09-30T15:04:57.784Z,5.03
2023-09-30T15:07:25.478Z,5.70
2023-09-30T15:09:55.695Z,5.38
2023-09-30T15:12:23.649Z,5.45
2023-09-30T15:14:52.946Z,5.25
2023-09-30T15:17:23.584Z,4.43
2023-09-30T15:19:55.450Z,5.05
2023-09-30T15:22:24.156Z,5.57
2023-09-30T15:24:52.321Z,4.57
2023-09-30T15:27:20.226Z,5.30
2023-09-30T15:29:51.570Z,4.82
2023-09-30T15:32:19.387Z,4.60
2023-09-30T15:34:50.115Z,4.25
2023-09-30T15:37:21.480Z,4.40
2023-09-30T15:39:49.317Z,4.85
2023-09-30T15:42:17.726Z,5.13
2023-09-30T15:44:45.362Z,4.30
2023-09-30T15:47:17.598Z,5.00
2023-09-30T15:49:48.395Z,4.47
2023-09-30T15:52:16.164Z,5.57
2023-09-30T15:54:43.845Z,5.25
2023-09-30T15:57:11.538Z,5.40
2023-09-30T15:59:40.586Z,4.88
2023-09-30T16:02:09.560Z,4.55
2023-09-30T16:04:37.851Z,3.83
2023-09-30T16:07:05.717Z,4.80
2023-09-30T16:09:34.166Z,4.30
2023-09-30T16:12:05.925Z,4.78
2023-09-30T16:14:33.787Z,4.63
2023-09-30T16:17:02.133Z,4.68
2023-09-30T16:19:29.996Z,5.35
2023-09-30T16:21:57.796Z,4.60
2023-09-30T16:24:25.974Z,5.35
2023-09-30T16:26:53.961Z,4.80
2023-09-30T16:29:24.919Z,5.05
2023-09-30T16:31:53.422Z,4.32
2023-09-30T16:34:21.930Z,5.22
2023-09-30T16:36:49.886Z,4.30
2023-09-30T16:39:18.057Z,5.10
2023-09-30T16:41:45.695Z,5.43
2023-09-30T16:44:14.804Z,5.28
2023-09-30T16:46:42.463Z,5.10
2023-09-30T16:49:10.431Z,5.00
2023-09-30T16:51:41.292Z,4.88
2023-09-30T16:54:09.575Z,4.93
2023-09-30T16:56:38.659Z,5.72
2023-09-30T16:59:06.797Z,4.90
2023-09-30T17:01:34.743Z,4.72
2023-09-30T17:04:02.645Z,4.72
2023-09-30T17:06:30.797Z,4.53
2023-09-30T17:08:58.465Z,4.90
2023-09-30T17:11:27.978Z,4.60
2023-09-30T17:13:55.760Z,4.43
2023-09-30T17:16:24.438Z,4.80
2023-09-30T17:18:52.239Z,4.82
2023-09-30T17:21:19.908Z,5.00
2023-09-30T17:23:48.015Z,5.65
2023-09-30T17:26:15.901Z,6.35
2023-09-30T17:28:43.600Z,7.80
2023-09-30T17:31:14.366Z,6.78
2023-09-30T17:33:43.012Z,6.18
2023-09-30T17:36:14.070Z,6.10
2023-09-30T17:38:41.734Z,5.13
2023-09-30T17:41:16.187Z,6.25
2023-09-30T17:43:44.287Z,5.18
2023-09-30T17:46:13.255Z,5.28
2023-09-30T17:48:41.660Z,5.28
2023-09-30T17:51:20.748Z,5.53
2023-09-30T17:53:52.692Z,6.85
2023-09-30T17:56:21.842Z,5.88
2023-09-30T17:58:49.522Z,5.40
2023-09-30T18:01:21.061Z,5.82
2023-09-30T18:03:50.589Z,5.32
2023-09-30T18:06:18.721Z,4.97
2023-09-30T18:08:49.849Z,5.78
2023-09-30T18:11:18.629Z,5.00
2023-09-30T18:13:48.061Z,4.88
2023-09-30T18:16:15.886Z,5.45
2023-09-30T18:18:43.912Z,5.15
2023-09-30T18:21:15.690Z,4.78
2023-09-30T18:23:43.900Z,10.02
2023-09-30T18:26:12.408Z,6.18
2023-09-30T18:28:40.274Z,5.78
2023-09-30T18:31:07.942Z,5.90
2023-09-30T18:33:35.777Z,6.25
2023-09-30T18:36:03.948Z,5.70
2023-09-30T18:38:32.311Z,4.97
2023-09-30T18:40:59.921Z,5.30
2023-09-30T18:43:31.611Z,5.53
2023-09-30T18:45:59.470Z,4.85
2023-09-30T18:48:27.191Z,5.53
2023-09-30T18:50:54.973Z,5.78
2023-09-30T18:53:22.635Z,5.38
2023-09-30T18:55:50.495Z,5.80
2023-09-30T18:58:18.812Z,5.22
2023-09-30T19:00:48.703Z,5.82
2023-09-30T19:03:17.684Z,4.68
2023-09-30T19:05:49.269Z,5.53
2023-09-30T19:08:17.333Z,5.00
2023-09-30T19:10:45.123Z,4.93
2023-09-30T19:13:12.885Z,7.05
2023-09-30T19:15:41.266Z,9.07
2023-09-30T19:18:11.333Z,8.30
2023-09-30T19:20:39.871Z,9.48
2023-09-30T19:23:10.132Z,7.22
2023-09-30T19:25:38.243Z,8.02
2023-09-30T19:28:06.139Z,6.65
2023-09-30T19:30:33.869Z,5.75
2023-09-30T19:33:01.722Z,5.45
2023-09-30T19:35:29.737Z,5.78
2023-09-30T19:37:58.846Z,4.95
2023-09-30T19:40:26.670Z,4.75
2023-09-30T19:42:54.765Z,5.93
2023-09-30T19:45:24.558Z,5.78
2023-09-30T19:48:01.624Z,5.10
2023-09-30T19:50:30.176Z,5.30
2023-09-30T19:52:58.455Z,5.65
2023-09-30T19:55:29.065Z,5.20
2023-09-30T19:57:57.208Z,5.20
2023-09-30T20:00:26.224Z,5.10
2023-09-30T20:02:54.430Z,4.97
2023-09-30T20:05:23.426Z,5.32
2023-09-30T20:07:51.497Z,4.43
2023-09-30T20:10:19.379Z,4.63
2023-09-30T20:12:47.274Z,4.78
2023-09-30T20:15:15.210Z,5.10
2023-09-30T20:17:43.615Z,4.78
2023-09-30T20:20:17.455Z,4.97
2023-09-30T20:22:45.716Z,5.10
2023-09-30T20:25:14.074Z,5.10
2023-09-30T20:27:43.352Z,4.45
2023-09-30T20:30:11.741Z,5.03
2023-09-30T20:32:40.229Z,4.95
2023-09-30T20:35:10.145Z,4.75
2023-09-30T20:37:38.813Z,5.18
2023-09-30T20:40:08.722Z,4.85
2023-09-30T20:42:36.555Z,4.60
2023-09-30T20:45:05.013Z,5.45
2023-09-30T20:47:33.683Z,4.55
2023-09-30T20:50:02.059Z,6.30
2023-09-30T20:52:29.884Z,4.70
2023-09-30T20:54:57.806Z,5.53
2023-09-30T20:57:25.799Z,5.55
2023-09-30T20:59:53.773Z,5.22
2023-09-30T21:02:24.806Z,5.68
2023-09-30T21:04:52.719Z,5.30
2023-09-30T21:07:20.539Z,5.55
2023-09-30T21:09:50.568Z,6.18
2023-09-30T21:12:18.346Z,4.47
2023-09-30T21:14:46.617Z,5.00
2023-09-30T21:17:16.302Z,5.25
2023-09-30T21:19:44.169Z,4.65
2023-09-30T21:22:11.990Z,5.65
2023-09-30T21:24:40.317Z,5.25
2023-09-30T21:27:08.112Z,5.50
2023-09-30T21:29:36.044Z,4.63
2023-09-30T21:32:04.093Z,5.28
2023-09-30T21:34:32.058Z,5.70
2023-09-30T21:37:00.636Z,5.05
2023-09-30T21:39:28.571Z,4.85
2023-09-30T21:41:56.451Z,5.65
2023-09-30T21:44:24.341Z,5.30
2023-09-30T21:46:53.244Z,5.63
2023-09-30T21:49:21.143Z,5.40
2023-09-30T21:51:50.256Z,5.15
2023-09-30T21:54:18.255Z,4.75
2023-09-30T21:56:47.240Z,4.10
2023-09-30T21:59:15.113Z,5.18
2023-09-30T22:01:44.293Z,5.00
2023-09-30T22:04:12.404Z,4.95
2023-09-30T22:06:40.239Z,5.75
2023-09-30T22:09:10.357Z,4.55
2023-09-30T22:11:38.173Z,5.47
2023-09-30T22:14:06.359Z,5.90
2023-09-30T22:16:34.355Z,5.47
2023-09-30T22:19:03.578Z,4.78
2023-09-30T22:21:32.301Z,5.18
2023-09-30T22:24:00.175Z,5.15
2023-09-30T22:26:28.823Z,5.40
2023-09-30T22:28:56.854Z,4.63
2023-09-30T22:31:25.160Z,5.93
2023-09-30T22:33:53.191Z,5.97
2023-09-30T22:36:27.379Z,5.80
2023-09-30T22:39:01.448Z,5.38
2023-09-30T22:41:29.370Z,5.47
2023-09-30T22:43:57.297Z,5.38
2023-09-30T22:46:25.248Z,5.30
2023-09-30T22:48:57.208Z,5.50
2023-09-30T22:51:25.185Z,4.80
2023-09-30T22:53:53.537Z,4.88
2023-09-30T22:56:24.318Z,5.70
2023-09-30T22:58:53.106Z,5.80
2023-09-30T23:01:24.665Z,5.35
2023-09-30T23:03:54.003Z,5.38
2023-09-30T23:06:22.536Z,5.18
2023-09-30T23:08:51.479Z,6.03
2023-09-30T23:11:19.338Z,5.53
2023-09-30T23:13:47.475Z,5.60
2023-09-30T23:16:16.794Z,5.50
2023-09-30T23:18:44.800Z,5.07
2023-09-30T23:21:13.445Z,5.28
2023-09-30T23:23:42.132Z,5.40
2023-09-30T23:26:11.078Z,5.63
2023-09-30T23:28:39.380Z,5.25
2023-09-30T23:31:09.315Z,5.40
2023-09-30T23:33:39.733Z,5.32
2023-09-30T23:36:12.191Z,5.88
2023-09-30T23:38:41.277Z,5.78
2023-09-30T23:41:12.381Z,5.00
2023-09-30T23:43:40.842Z,5.05
2023-09-30T23:46:13.280Z,5.32
2023-09-30T23:48:41.976Z,5.00
2023-09-30T23:51:11.617Z,6.28
2023-09-30T23:53:39.484Z,5.72
2023-09-30T23:56:07.556Z,5.43
2023-09-30T23:58:35.920Z,4.85
